Gogama, Canada
Current Conditions -  °F | °C
As of 9:00 PM on Monday 20 Oct 2014 (Local Time) from CYTS Reporting Station
Overcast Overcast  
Wind Chill:   Ceiling: 11000
Heat Index:   Visibility: 15mi
Dew Point:   Wind: 5mph
Humidity: 100%   Direction: 350°N
Pressure: 29.97"   Gusts: NA
Location:  47.67°N, 81.72°W
Report Text: CYTS 210100Z 35004KT 15SM OVC110 02/02 A2997 RMK AC8 SLP163
Loading
Personal Weather Stations






























Interactive Weather Map
Tropical Storm Tracking
New forecast layout! Learn more

10-Day Weather Forecast

Advertisements
Track Severe Weather on mobile